Time,TemperatureF,DewpointF,PressureIn,WindDirection,WindDirectionDegrees,WindSpeedMPH,WindSpeedGustMPH,Humidity,HourlyPrecipIn,Conditions,Clouds,dailyrainin,SoftwareType,DateUTC
2013-03-14 00:00:00,63.7,52.1,30.13,NNW,338,1.8,1.8,66,0.00,,,0.00,WUHU216HW,2013-03-14 04:00:00,
2013-03-14 00:02:00,63.7,52.1,30.13,NNW,338,1.8,1.8,66,0.00,,,0.00,WUHU216HW,2013-03-14 04:02:00,
2013-03-14 00:07:00,63.7,52.1,30.13,NNW,338,1.8,1.8,66,0.00,,,0.00,WUHU216HW,2013-03-14 04:07:00,
2013-03-14 00:30:00,62.6,51.1,30.13,NNW,338,3.6,3.6,66,0.00,,,0.00,WUHU216HW,2013-03-14 04:30:00,
2013-03-14 00:35:00,62.6,51.1,30.13,NNW,338,3.6,3.6,66,0.00,,,0.00,WUHU216HW,2013-03-14 04:35:00,
2013-03-14 01:00:00,61.7,49.9,30.13,North,0,2.0,2.0,65,0.00,,,0.00,WUHU216HW,2013-03-14 05:00:00,
2013-03-14 01:05:00,61.7,49.9,30.13,North,0,2.0,2.0,65,0.00,,,0.00,WUHU216HW,2013-03-14 05:05:00,
2013-03-14 01:30:00,60.8,49.1,30.14,ENE,68,2.0,2.0,65,0.00,,,0.00,WUHU216HW,2013-03-14 05:30:00,
2013-03-14 01:35:00,60.8,49.1,30.14,ENE,68,2.0,2.0,65,0.00,,,0.00,WUHU216HW,2013-03-14 05:35:00,
2013-03-14 02:00:00,60.3,48.5,30.13,NNW,338,1.6,1.6,65,0.00,,,0.00,WUHU216HW,2013-03-14 06:00:00,
2013-03-14 02:05:00,60.3,48.5,30.13,NNW,338,1.6,1.6,65,0.00,,,0.00,WUHU216HW,2013-03-14 06:05:00,
2013-03-14 02:30:00,59.4,47.2,30.13,North,0,2.2,2.2,64,0.00,,,0.00,WUHU216HW,2013-03-14 06:30:00,
2013-03-14 02:35:00,59.4,47.2,30.13,North,0,2.2,2.2,64,0.00,,,0.00,WUHU216HW,2013-03-14 06:35:00,
2013-03-14 03:05:00,59.4,47.2,30.12,North,0,1.8,1.8,64,0.00,,,0.00,WUHU216HW,2013-03-14 07:05:00,
2013-03-14 03:07:00,59.4,47.2,30.12,North,0,1.8,1.8,64,0.00,,,0.00,WUHU216HW,2013-03-14 07:07:00,
2013-03-14 03:12:00,59.4,47.2,30.12,North,0,1.8,1.8,64,0.00,,,0.00,WUHU216HW,2013-03-14 07:12:00,
2013-03-14 03:30:00,58.7,46.9,30.12,North,0,2.5,2.5,65,0.00,,,0.00,WUHU216HW,2013-03-14 07:30:00,
2013-03-14 03:35:00,58.7,46.9,30.12,North,0,2.5,2.5,65,0.00,,,0.00,WUHU216HW,2013-03-14 07:35:00,
2013-03-14 04:00:00,58.5,47.2,30.11,NE,45,1.1,1.1,66,0.00,,,0.00,WUHU216HW,2013-03-14 08:00:00,
2013-03-14 04:05:00,58.5,47.2,30.11,NE,45,1.1,1.1,66,0.00,,,0.00,WUHU216HW,2013-03-14 08:05:00,
2013-03-14 04:30:00,58.3,47.3,30.10,NNE,23,2.5,2.5,67,0.00,,,0.00,WUHU216HW,2013-03-14 08:30:00,
2013-03-14 04:35:00,58.3,47.3,30.10,NNE,23,2.5,2.5,67,0.00,,,0.00,WUHU216HW,2013-03-14 08:35:00,
2013-03-14 05:00:00,58.0,47.4,30.10,North,0,2.9,2.9,68,0.00,,,0.00,WUHU216HW,2013-03-14 09:00:00,
2013-03-14 05:05:00,58.0,47.4,30.10,North,0,2.9,2.9,68,0.00,,,0.00,WUHU216HW,2013-03-14 09:05:00,
2013-03-14 05:30:00,57.6,47.5,30.10,North,0,4.5,4.5,69,0.00,,,0.00,WUHU216HW,2013-03-14 09:30:00,
2013-03-14 05:35:00,57.6,47.5,30.10,North,0,4.5,4.5,69,0.00,,,0.00,WUHU216HW,2013-03-14 09:35:00,
2013-03-14 06:00:00,57.2,48.2,30.11,NW,315,4.0,4.0,72,0.00,,,0.00,WUHU216HW,2013-03-14 10:00:00,
2013-03-14 06:05:00,57.2,48.2,30.11,NW,315,4.0,4.0,72,0.00,,,0.00,WUHU216HW,2013-03-14 10:05:00,
2013-03-14 06:30:00,57.1,48.4,30.12,ENE,68,2.5,2.5,73,0.00,,,0.00,WUHU216HW,2013-03-14 10:30:00,
2013-03-14 06:35:00,57.1,48.4,30.12,ENE,68,2.5,2.5,73,0.00,,,0.00,WUHU216HW,2013-03-14 10:35:00,
2013-03-14 07:00:00,57.1,47.7,30.14,NW,315,3.6,3.6,71,0.00,,,0.00,WUHU216HW,2013-03-14 11:00:00,
2013-03-14 07:05:00,57.1,47.7,30.14,NW,315,3.6,3.6,71,0.00,,,0.00,WUHU216HW,2013-03-14 11:05:00,
2013-03-14 07:30:00,56.5,44.8,30.15,NW,315,5.6,5.6,65,0.00,,,0.00,WUHU216HW,2013-03-14 11:30:00,
2013-03-14 07:35:00,56.5,44.8,30.15,NW,315,5.6,5.6,65,0.00,,,0.00,WUHU216HW,2013-03-14 11:35:00,
2013-03-14 08:00:00,56.2,40.1,30.15,North,0,4.7,4.7,55,0.00,,,0.00,WUHU216HW,2013-03-14 12:00:00,
2013-03-14 08:05:00,56.2,40.1,30.15,North,0,4.7,4.7,55,0.00,,,0.00,WUHU216HW,2013-03-14 12:05:00,
2013-03-14 08:30:00,55.4,39.4,30.17,NE,45,3.6,3.6,55,0.00,,,0.00,WUHU216HW,2013-03-14 12:30:00,
2013-03-14 08:35:00,55.4,39.4,30.17,NE,45,3.6,3.6,55,0.00,,,0.00,WUHU216HW,2013-03-14 12:35:00,
2013-03-14 09:00:00,55.3,38.8,30.19,NNW,338,5.4,5.4,54,0.00,,,0.00,WUHU216HW,2013-03-14 13:00:00,
2013-03-14 09:05:00,55.3,38.8,30.19,NNW,338,5.4,5.4,54,0.00,,,0.00,WUHU216HW,2013-03-14 13:05:00,
2013-03-14 09:30:00,56.5,38.2,30.19,East,90,10.5,10.5,50,0.00,,,0.00,WUHU216HW,2013-03-14 13:30:00,
2013-03-14 09:35:00,56.5,38.2,30.19,East,90,10.5,10.5,50,0.00,,,0.00,WUHU216HW,2013-03-14 13:35:00,
2013-03-14 10:00:00,58.0,39.0,30.20,NNE,23,6.0,6.0,49,0.00,,,0.00,WUHU216HW,2013-03-14 14:00:00,
2013-03-14 10:05:00,58.0,39.0,30.20,NNE,23,6.0,6.0,49,0.00,,,0.00,WUHU216HW,2013-03-14 14:05:00,
2013-03-14 10:31:00,58.7,36.2,30.20,NE,45,5.8,5.8,43,0.00,,,0.00,WUHU216HW,2013-03-14 14:31:00,
2013-03-14 10:32:00,58.7,36.2,30.20,NE,45,5.8,5.8,43,0.00,,,0.00,WUHU216HW,2013-03-14 14:32:00,
2013-03-14 10:37:00,58.7,36.2,30.20,NE,45,5.8,5.8,43,0.00,,,0.00,WUHU216HW,2013-03-14 14:37:00,
2013-03-14 11:30:00,61.2,36.0,30.20,NNW,338,4.5,4.5,39,0.00,,,0.00,WUHU216HW,2013-03-14 15:30:00,
2013-03-14 11:35:00,61.2,36.0,30.20,NNW,338,4.5,4.5,39,0.00,,,0.00,WUHU216HW,2013-03-14 15:35:00,
2013-03-14 12:00:00,63.2,38.4,30.20,NE,45,2.5,2.5,40,0.00,,,0.00,WUHU216HW,2013-03-14 16:00:00,
2013-03-14 12:05:00,63.2,38.4,30.20,NE,45,2.5,2.5,40,0.00,,,0.00,WUHU216HW,2013-03-14 16:05:00,
2013-03-14 12:30:00,64.3,38.7,30.19,NW,315,4.7,4.7,39,0.00,,,0.00,WUHU216HW,2013-03-14 16:30:00,
2013-03-14 12:35:00,64.3,38.7,30.19,NW,315,4.7,4.7,39,0.00,,,0.00,WUHU216HW,2013-03-14 16:35:00,
2013-03-14 13:00:00,65.7,37.9,30.18,ENE,68,1.3,1.3,36,0.00,,,0.00,WUHU216HW,2013-03-14 17:00:00,
2013-03-14 13:05:00,65.7,37.9,30.18,ENE,68,1.3,1.3,36,0.00,,,0.00,WUHU216HW,2013-03-14 17:05:00,
2013-03-14 13:30:00,66.6,38.6,30.17,NNW,338,5.4,5.4,36,0.00,,,0.00,WUHU216HW,2013-03-14 17:30:00,
2013-03-14 13:35:00,66.6,38.6,30.17,NNW,338,5.4,5.4,36,0.00,,,0.00,WUHU216HW,2013-03-14 17:35:00,
2013-03-14 14:00:00,67.7,39.6,30.16,NE,45,4.0,4.0,36,0.00,,,0.00,WUHU216HW,2013-03-14 18:00:00,
2013-03-14 14:05:00,67.7,39.6,30.16,NE,45,4.0,4.0,36,0.00,,,0.00,WUHU216HW,2013-03-14 18:05:00,
2013-03-14 14:30:00,68.6,37.5,30.13,NNE,23,5.1,5.1,32,0.00,,,0.00,WUHU216HW,2013-03-14 18:30:00,
2013-03-14 14:35:00,68.6,37.5,30.13,NNE,23,5.1,5.1,32,0.00,,,0.00,WUHU216HW,2013-03-14 18:35:00,
2013-03-14 15:00:00,69.7,39.2,30.12,WNW,293,4.3,4.3,33,0.00,,,0.00,WUHU216HW,2013-03-14 19:00:00,
2013-03-14 15:05:00,69.7,39.2,30.12,WNW,293,4.3,4.3,33,0.00,,,0.00,WUHU216HW,2013-03-14 19:05:00,
2013-03-14 15:30:00,70.6,40.0,30.12,North,0,4.9,4.9,33,0.00,,,0.00,WUHU216HW,2013-03-14 19:30:00,
2013-03-14 15:35:00,70.6,40.0,30.12,North,0,4.9,4.9,33,0.00,,,0.00,WUHU216HW,2013-03-14 19:35:00,
2013-03-14 16:00:00,71.3,44.3,30.11,West,270,1.3,1.3,38,0.00,,,0.00,WUHU216HW,2013-03-14 20:00:00,
2013-03-14 16:05:00,71.3,44.3,30.11,West,270,1.3,1.3,38,0.00,,,0.00,WUHU216HW,2013-03-14 20:05:00,
2013-03-14 16:30:00,70.0,44.7,30.10,NNW,338,4.3,4.3,40,0.00,,,0.00,WUHU216HW,2013-03-14 20:30:00,
2013-03-14 16:35:00,70.0,44.7,30.10,NNW,338,4.3,4.3,40,0.00,,,0.00,WUHU216HW,2013-03-14 20:35:00,
2013-03-14 17:00:00,69.1,43.8,30.11,NNW,338,6.3,6.3,40,0.00,,,0.00,WUHU216HW,2013-03-14 21:00:00,
2013-03-14 17:05:00,69.1,43.8,30.11,NNW,338,6.3,6.3,40,0.00,,,0.00,WUHU216HW,2013-03-14 21:05:00,
2013-03-14 17:30:00,67.7,46.7,30.12,NNW,338,5.4,5.4,47,0.00,,,0.00,WUHU216HW,2013-03-14 21:30:00,
2013-03-14 17:35:00,67.7,46.7,30.12,NNW,338,5.4,5.4,47,0.00,,,0.00,WUHU216HW,2013-03-14 21:35:00,
2013-03-14 18:00:00,67.0,48.8,30.12,NNW,338,5.1,5.1,52,0.00,,,0.00,WUHU216HW,2013-03-14 22:00:00,
2013-03-14 18:05:00,67.0,48.8,30.12,NNW,338,5.1,5.1,52,0.00,,,0.00,WUHU216HW,2013-03-14 22:05:00,
2013-03-14 18:30:00,66.2,50.0,30.12,WSW,248,4.3,4.3,56,0.00,,,0.00,WUHU216HW,2013-03-14 22:30:00,
2013-03-14 18:35:00,66.2,50.0,30.12,WSW,248,4.3,4.3,56,0.00,,,0.00,WUHU216HW,2013-03-14 22:35:00,
2013-03-14 19:00:00,65.3,49.1,30.13,West,270,6.5,6.5,56,0.00,,,0.00,WUHU216HW,2013-03-14 23:00:00,
2013-03-14 19:05:00,65.3,49.1,30.13,West,270,6.5,6.5,56,0.00,,,0.00,WUHU216HW,2013-03-14 23:05:00,
2013-03-14 19:30:00,64.6,50.0,30.14,NW,315,3.8,3.8,59,0.00,,,0.00,WUHU216HW,2013-03-14 23:30:00,
2013-03-14 19:35:00,64.6,50.0,30.14,NW,315,3.8,3.8,59,0.00,,,0.00,WUHU216HW,2013-03-14 23:35:00,
2013-03-14 19:59:00,64.1,50.3,30.13,NW,315,0.2,0.2,61,0.00,,,0.00,WUHU216HW,2013-03-14 23:59:00,
2013-03-14 20:00:00,64.1,50.3,30.13,NW,315,0.2,0.2,61,0.00,,,0.00,WUHU216HW,2013-03-15 00:00:00,
2013-03-14 20:05:00,64.1,50.3,30.13,NW,315,0.2,0.2,61,0.00,,,0.00,WUHU216HW,2013-03-15 00:05:00,
2013-03-14 20:30:00,63.7,50.9,30.14,North,0,0.7,0.7,63,0.00,,,0.00,WUHU216HW,2013-03-15 00:30:00,
2013-03-14 20:35:00,63.7,50.9,30.14,North,0,0.7,0.7,63,0.00,,,0.00,WUHU216HW,2013-03-15 00:35:00,
2013-03-14 20:59:00,63.5,51.1,30.15,North,0,0.0,0.0,64,0.00,,,0.00,WUHU216HW,2013-03-15 00:59:00,
2013-03-14 21:00:00,63.5,51.1,30.15,North,0,0.0,0.0,64,0.00,,,0.00,WUHU216HW,2013-03-15 01:00:00,
2013-03-14 21:05:00,63.5,51.1,30.15,North,0,0.0,0.0,64,0.00,,,0.00,WUHU216HW,2013-03-15 01:05:00,
2013-03-14 21:30:00,62.3,50.8,30.16,NNW,338,0.4,0.4,66,0.00,,,0.00,WUHU216HW,2013-03-15 01:30:00,
2013-03-14 21:35:00,62.3,50.8,30.16,NNW,338,0.4,0.4,66,0.00,,,0.00,WUHU216HW,2013-03-15 01:35:00,
2013-03-14 21:59:00,61.6,50.9,30.17,North,0,0.0,0.0,68,0.00,,,0.00,WUHU216HW,2013-03-15 01:59:00,
2013-03-14 22:00:00,61.6,50.9,30.17,North,0,0.0,0.0,68,0.00,,,0.00,WUHU216HW,2013-03-15 02:00:00,
2013-03-14 22:05:00,61.6,50.9,30.17,North,0,0.0,0.0,68,0.00,,,0.00,WUHU216HW,2013-03-15 02:05:00,
2013-03-14 22:30:00,60.7,50.1,30.17,North,0,1.8,1.8,68,0.00,,,0.00,WUHU216HW,2013-03-15 02:30:00,
2013-03-14 22:35:00,60.7,50.1,30.17,North,0,1.8,1.8,68,0.00,,,0.00,WUHU216HW,2013-03-15 02:35:00,
2013-03-14 23:00:00,59.6,47.3,30.18,ESE,113,1.6,1.6,64,0.00,,,0.00,WUHU216HW,2013-03-15 03:00:00,
2013-03-14 23:05:00,59.6,47.3,30.18,ESE,113,1.6,1.6,64,0.00,,,0.00,WUHU216HW,2013-03-15 03:05:00,
2013-03-14 23:30:00,59.2,46.6,30.20,ESE,113,2.0,2.0,63,0.00,,,0.00,WUHU216HW,2013-03-15 03:30:00,
2013-03-14 23:35:00,59.2,46.6,30.20,ESE,113,2.0,2.0,63,0.00,,,0.00,WUHU216HW,2013-03-15 03:35:00,